Time,TemperatureF,DewpointF,PressureIn,WindDirection,WindDirectionDegrees,WindSpeedMPH,WindSpeedGustMPH,Humidity,HourlyPrecipIn,Conditions,Clouds,dailyrainin,SoftwareType,DateUTC
2013-05-05 13:38:00,56.9,52.0,29.95,NNW,346,0.0,-999.0,83,-99.99,,,0.00,weatherlink.com 1.10,2013-05-05 17:38:00,
2013-05-05 13:46:00,56.9,52.0,29.94,North,354,0.0,-999.0,83,-99.99,,,0.00,weatherlink.com 1.10,2013-05-05 17:46:00,
2013-05-05 14:01:00,57.0,52.0,29.94,ENE,73,0.0,-999.0,84,-99.99,,,0.00,weatherlink.com 1.10,2013-05-05 18:01:00,
2013-05-05 14:16:00,57.5,53.0,29.94,ENE,69,0.0,-999.0,84,-99.99,,,0.00,weatherlink.com 1.10,2013-05-05 18:16:00,
2013-05-05 14:32:00,57.8,53.0,29.94,NNE,14,0.0,-999.0,85,-99.99,,,0.00,weatherlink.com 1.10,2013-05-05 18:32:00,
2013-05-05 14:47:00,58.1,53.0,29.94,NNE,23,0.0,-999.0,84,-99.99,,,0.00,weatherlink.com 1.10,2013-05-05 18:47:00,
2013-05-05 15:02:00,58.4,-99.9,29.93,North,356,0.0,-999.0,-999,-99.99,,,0.00,weatherlink.com 1.10,2013-05-05 19:02:00,
2013-05-05 15:17:00,58.7,54.0,29.93,NE,54,0.0,-999.0,85,-99.99,,,0.00,weatherlink.com 1.10,2013-05-05 19:17:00,
2013-05-05 15:32:00,58.7,54.0,29.93,NNE,18,0.0,-999.0,84,-99.99,,,0.00,weatherlink.com 1.10,2013-05-05 19:32:00,
2013-05-05 15:47:00,58.9,54.0,29.92,ENE,58,0.0,-999.0,84,-99.99,,,0.00,weatherlink.com 1.10,2013-05-05 19:47:00,
2013-05-05 16:02:00,59.0,54.0,29.91,NNW,344,0.0,-999.0,84,-99.99,,,0.00,weatherlink.com 1.10,2013-05-05 20:02:00,
2013-05-05 16:17:00,59.3,55.0,29.91,NW,320,0.0,-999.0,85,-99.99,,,0.00,weatherlink.com 1.10,2013-05-05 20:17:00,
2013-05-05 16:32:00,59.3,55.0,29.90,North,1,0.0,-999.0,85,-99.99,,,0.00,weatherlink.com 1.10,2013-05-05 20:32:00,
2013-05-05 16:47:00,59.3,55.0,29.90,NNE,30,0.0,-999.0,84,-99.99,,,0.00,weatherlink.com 1.10,2013-05-05 20:47:00,
2013-05-05 17:02:00,59.0,55.0,29.91,North,10,0.0,-999.0,86,-99.99,,,0.00,weatherlink.com 1.10,2013-05-05 21:02:00,
2013-05-05 17:17:00,58.7,55.0,29.90,NE,56,0.0,-999.0,87,-99.99,,,0.00,weatherlink.com 1.10,2013-05-05 21:17:00,
2013-05-05 17:32:00,58.4,55.0,29.90,ENE,59,0.0,-999.0,88,-99.99,,,0.00,weatherlink.com 1.10,2013-05-05 21:32:00,
2013-05-05 17:47:00,58.3,55.0,29.89,NNE,27,0.0,-999.0,87,-99.99,,,0.00,weatherlink.com 1.10,2013-05-05 21:47:00,
2013-05-05 18:02:00,58.4,55.0,29.89,NE,37,0.0,-999.0,87,-99.99,,,0.00,weatherlink.com 1.10,2013-05-05 22:02:00,
2013-05-05 18:17:00,58.6,55.0,29.89,ENE,73,0.0,-999.0,87,-99.99,,,0.00,weatherlink.com 1.10,2013-05-05 22:17:00,
2013-05-05 18:33:00,58.6,55.0,29.89,NE,56,0.0,-999.0,87,-99.99,,,0.00,weatherlink.com 1.10,2013-05-05 22:33:00,
2013-05-05 18:48:00,58.4,55.0,29.89,East,90,0.0,-999.0,87,-99.99,,,0.00,weatherlink.com 1.10,2013-05-05 22:48:00,
2013-05-05 19:03:00,58.3,55.0,29.89,East,80,0.0,-999.0,87,-99.99,,,0.00,weatherlink.com 1.10,2013-05-05 23:03:00,
2013-05-05 19:18:00,58.3,55.0,29.89,ENE,69,0.0,-999.0,87,-99.99,,,0.00,weatherlink.com 1.10,2013-05-05 23:18:00,
2013-05-05 19:33:00,58.3,54.0,29.88,NE,47,0.0,-999.0,86,-99.99,,,0.00,weatherlink.com 1.10,2013-05-05 23:33:00,
2013-05-05 19:48:00,58.3,54.0,29.89,North,11,0.0,-999.0,86,-99.99,,,0.00,weatherlink.com 1.10,2013-05-05 23:48:00,
2013-05-05 20:03:00,58.3,54.0,29.89,ENE,78,0.0,-999.0,86,-99.99,,,0.00,weatherlink.com 1.10,2013-05-06 00:03:00,
2013-05-05 20:18:00,58.3,54.0,29.88,ENE,72,0.0,-999.0,86,-99.99,,,0.00,weatherlink.com 1.10,2013-05-06 00:18:00,
2013-05-05 20:33:00,58.4,54.0,29.89,East,93,0.0,-999.0,86,-99.99,,,0.00,weatherlink.com 1.10,2013-05-06 00:33:00,
2013-05-05 20:48:00,58.6,54.0,29.89,NE,51,0.0,-999.0,85,-99.99,,,0.00,weatherlink.com 1.10,2013-05-06 00:48:00,
2013-05-05 21:03:00,58.6,54.0,29.90,NNE,25,1.0,-999.0,85,-99.99,,,0.00,weatherlink.com 1.10,2013-05-06 01:03:00,
2013-05-05 21:18:00,58.6,54.0,29.89,East,88,1.0,-999.0,85,-99.99,,,0.00,weatherlink.com 1.10,2013-05-06 01:18:00,
2013-05-05 21:33:00,58.6,54.0,29.90,NNE,30,0.0,-999.0,85,-99.99,,,0.00,weatherlink.com 1.10,2013-05-06 01:33:00,
2013-05-05 21:48:00,58.4,54.0,29.90,NNE,30,0.0,-999.0,86,-99.99,,,0.00,weatherlink.com 1.10,2013-05-06 01:48:00,
2013-05-05 22:03:00,58.3,54.0,29.91,ENE,69,0.0,-999.0,86,-99.99,,,0.00,weatherlink.com 1.10,2013-05-06 02:03:00,
2013-05-05 22:18:00,58.0,55.0,29.91,ENE,66,0.0,-999.0,88,-99.99,,,0.00,weatherlink.com 1.10,2013-05-06 02:18:00,
2013-05-05 22:33:00,57.8,54.0,29.91,North,357,0.0,-999.0,88,-99.99,,,0.00,weatherlink.com 1.10,2013-05-06 02:33:00,
2013-05-05 22:48:00,57.6,54.0,29.91,ENE,64,0.0,-999.0,89,-99.99,,,0.00,weatherlink.com 1.10,2013-05-06 02:48:00,
2013-05-05 23:03:00,57.5,54.0,29.90,NNE,18,0.0,-999.0,89,-99.99,,,0.00,weatherlink.com 1.10,2013-05-06 03:03:00,
2013-05-05 23:18:00,57.3,54.0,29.90,NE,54,0.0,-999.0,89,-99.99,,,0.00,weatherlink.com 1.10,2013-05-06 03:18:00,
2013-05-05 23:33:00,57.2,54.0,29.90,NE,54,0.0,-999.0,89,-99.99,,,0.00,weatherlink.com 1.10,2013-05-06 03:33:00,
2013-05-05 23:48:00,57.0,54.0,29.89,NNE,27,0.0,-999.0,89,-99.99,,,0.00,weatherlink.com 1.10,2013-05-06 03:48:00,